createdAt,value
2018-07-26T00:01:47.930Z,6.67
2018-07-26T00:04:15.934Z,6.57
2018-07-26T00:06:44.216Z,6.70
2018-07-26T00:12:04.706Z,6.77
2018-07-26T00:14:33.086Z,6.37
2018-07-26T00:17:01.510Z,7.27
2018-07-26T00:19:29.783Z,6.70
2018-07-26T00:21:58.070Z,6.83
2018-07-26T00:24:26.331Z,7.63
2018-07-26T00:27:43.159Z,6.93
2018-07-26T00:30:11.382Z,6.90
2018-07-26T00:32:39.659Z,6.63
2018-07-26T00:35:07.959Z,6.97
2018-07-26T00:37:36.234Z,7.03
2018-07-26T00:40:05.239Z,7.13
2018-07-26T00:42:33.523Z,7.37
2018-07-26T00:45:02.755Z,7.47
2018-07-26T00:47:31.134Z,7.73
2018-07-26T00:49:59.405Z,7.23
2018-07-26T00:52:27.676Z,7.97
2018-07-26T00:54:55.957Z,7.67
2018-07-26T00:57:24.231Z,8.10
2018-07-26T00:59:52.521Z,8.30
2018-07-26T01:02:20.794Z,7.73
2018-07-26T01:04:49.068Z,8.23
2018-07-26T01:07:17.338Z,8.30
2018-07-26T01:09:45.671Z,8.93
2018-07-26T01:12:13.925Z,8.00
2018-07-26T01:14:42.237Z,7.90
2018-07-26T01:17:10.557Z,7.47
2018-07-26T01:19:38.811Z,7.80
2018-07-26T01:22:07.367Z,8.23
2018-07-26T01:24:35.682Z,7.90
2018-07-26T01:27:04.090Z,7.43
2018-07-26T01:29:32.126Z,7.83
2018-07-26T01:32:00.382Z,8.13
2018-07-26T01:34:28.636Z,7.47
2018-07-26T01:36:56.883Z,8.40
2018-07-26T01:39:25.162Z,8.97
2018-07-26T01:41:53.521Z,9.00
2018-07-26T01:44:23.132Z,8.90
2018-07-26T01:46:51.423Z,8.70
2018-07-26T01:49:19.687Z,8.93
2018-07-26T01:51:48.138Z,9.20
2018-07-26T01:54:16.843Z,8.33
2018-07-26T01:56:45.107Z,8.23
2018-07-26T01:59:13.363Z,8.43
2018-07-26T02:01:41.654Z,8.53
2018-07-26T02:04:09.923Z,7.87
2018-07-26T02:06:38.216Z,8.10
2018-07-26T02:09:08.331Z,8.47
2018-07-26T02:11:36.662Z,7.67
2018-07-26T02:14:05.281Z,8.30
2018-07-26T02:16:33.550Z,8.00
2018-07-26T02:19:01.819Z,8.57
2018-07-26T02:21:30.090Z,8.03
2018-07-26T02:23:58.382Z,8.17
2018-07-26T02:26:26.662Z,8.30
2018-07-26T02:29:00.478Z,8.13
2018-07-26T02:31:28.770Z,8.00
2018-07-26T02:33:57.110Z,8.30
2018-07-26T02:36:25.384Z,8.20
2018-07-26T02:38:53.655Z,7.83
2018-07-26T02:41:21.918Z,8.43
2018-07-26T02:43:50.192Z,8.13
2018-07-26T02:46:18.451Z,8.30
2018-07-26T02:48:46.710Z,7.37
2018-07-26T02:51:14.991Z,7.63
2018-07-26T02:53:43.256Z,7.90
2018-07-26T02:56:11.531Z,8.40
2018-07-26T02:58:39.807Z,7.43
2018-07-26T03:01:08.082Z,7.97
2018-07-26T03:06:09.226Z,7.60
2018-07-26T03:08:37.494Z,9.23
2018-07-26T03:11:05.756Z,7.87
2018-07-26T03:13:34.036Z,8.40
2018-07-26T03:16:02.299Z,7.63
2018-07-26T03:18:30.582Z,8.00
2018-07-26T03:20:58.874Z,8.20
2018-07-26T03:23:27.111Z,8.00
2018-07-26T03:25:55.170Z,7.90
2018-07-26T03:28:23.440Z,8.63
2018-07-26T03:30:51.711Z,8.73
2018-07-26T03:33:20.024Z,8.60
2018-07-26T03:35:48.286Z,9.03
2018-07-26T03:38:16.638Z,8.77
2018-07-26T03:40:44.941Z,8.57
2018-07-26T03:43:13.204Z,8.43
2018-07-26T03:45:41.469Z,8.60
2018-07-26T03:48:11.179Z,8.17
2018-07-26T03:50:39.439Z,8.33
2018-07-26T03:53:07.707Z,8.40
2018-07-26T03:55:35.966Z,8.83
2018-07-26T03:58:04.230Z,8.47
2018-07-26T04:00:32.514Z,8.33
2018-07-26T04:03:00.862Z,8.07
2018-07-26T04:05:29.149Z,8.23
2018-07-26T04:07:57.395Z,8.67
2018-07-26T04:10:25.652Z,8.73
2018-07-26T04:12:54.022Z,8.87
2018-07-26T04:15:22.278Z,8.20
2018-07-26T04:17:55.739Z,8.43
2018-07-26T04:20:24.012Z,7.90
2018-07-26T04:22:52.290Z,8.30
2018-07-26T04:25:20.554Z,8.97
2018-07-26T04:27:48.818Z,7.47
2018-07-26T04:30:17.082Z,8.77
2018-07-26T04:32:45.367Z,8.67
2018-07-26T04:35:13.738Z,8.73
2018-07-26T04:37:42.032Z,8.13
2018-07-26T04:40:10.277Z,7.60
2018-07-26T04:42:38.743Z,7.60
2018-07-26T04:45:07.432Z,8.43
2018-07-26T04:47:35.871Z,8.23
2018-07-26T04:50:04.404Z,8.47
2018-07-26T04:52:32.810Z,8.30
2018-07-26T04:55:01.052Z,8.57
2018-07-26T04:57:29.319Z,8.23
2018-07-26T04:59:57.563Z,8.33
2018-07-26T05:02:25.808Z,8.43
2018-07-26T05:04:54.087Z,7.77
2018-07-26T05:07:22.346Z,8.30
2018-07-26T05:09:50.705Z,8.30
2018-07-26T05:12:18.998Z,7.97
2018-07-26T05:14:47.254Z,8.60
2018-07-26T05:17:15.499Z,8.43
2018-07-26T05:19:44.047Z,8.00
2018-07-26T05:22:12.335Z,8.63
2018-07-26T05:24:40.578Z,8.20
2018-07-26T05:27:08.827Z,7.97
2018-07-26T05:29:37.099Z,8.07
2018-07-26T05:32:05.358Z,7.90
2018-07-26T05:34:33.615Z,7.67
2018-07-26T05:37:01.887Z,7.83
2018-07-26T05:39:30.137Z,8.43
2018-07-26T05:41:58.419Z,7.77
2018-07-26T05:44:26.685Z,7.60
2018-07-26T05:46:54.970Z,7.87
2018-07-26T05:49:23.260Z,7.60
2018-07-26T05:51:51.526Z,7.20
2018-07-26T05:54:19.885Z,7.27
2018-07-26T05:56:48.150Z,7.57
2018-07-26T05:59:16.414Z,7.63
2018-07-26T06:01:44.691Z,7.47
2018-07-26T06:04:12.987Z,6.87
2018-07-26T06:06:41.028Z,7.40
2018-07-26T06:09:10.535Z,7.53
2018-07-26T06:11:39.024Z,6.93
2018-07-26T06:14:09.160Z,6.57
2018-07-26T06:16:37.434Z,6.77
2018-07-26T06:19:05.713Z,6.53
2018-07-26T06:21:33.970Z,6.43
2018-07-26T06:24:02.450Z,6.30
2018-07-26T06:26:30.722Z,6.30
2018-07-26T06:28:58.967Z,7.13
2018-07-26T06:31:27.213Z,6.37
2018-07-26T06:33:55.205Z,6.23
2018-07-26T06:36:24.717Z,7.13
2018-07-26T06:38:53.004Z,6.53
2018-07-26T06:41:21.273Z,6.90
2018-07-26T06:43:49.538Z,6.70
2018-07-26T06:46:17.808Z,6.73
2018-07-26T06:48:46.079Z,6.57
2018-07-26T06:51:14.379Z,6.30
2018-07-26T06:53:42.666Z,6.03
2018-07-26T06:56:10.939Z,6.07
2018-07-26T06:58:39.218Z,6.13
2018-07-26T07:01:07.596Z,6.33
2018-07-26T07:03:35.883Z,5.40
2018-07-26T07:06:04.169Z,6.07
2018-07-26T07:08:32.452Z,5.53
2018-07-26T07:11:00.751Z,5.27
2018-07-26T07:13:29.032Z,5.47
2018-07-26T07:15:57.337Z,5.67
2018-07-26T07:18:25.823Z,5.57
2018-07-26T07:20:54.169Z,4.97
2018-07-26T07:23:22.851Z,5.30
2018-07-26T07:25:51.269Z,4.20
2018-07-26T07:28:19.547Z,4.57
2018-07-26T07:30:47.841Z,4.37
2018-07-26T07:33:16.151Z,4.30
2018-07-26T07:35:44.407Z,3.92
2018-07-26T07:38:12.694Z,3.42
2018-07-26T07:40:40.969Z,3.37
2018-07-26T07:43:09.242Z,4.10
2018-07-26T07:45:37.570Z,3.90
2018-07-26T07:48:06.023Z,3.47
2018-07-26T07:50:34.399Z,3.42
2018-07-26T07:53:02.688Z,3.50
2018-07-26T07:55:30.995Z,3.50
2018-07-26T07:57:59.258Z,3.45
2018-07-26T08:00:27.531Z,3.50
2018-07-26T08:02:55.885Z,3.42
2018-07-26T08:05:24.213Z,3.22
2018-07-26T08:07:52.455Z,3.50
2018-07-26T08:10:20.740Z,3.20
2018-07-26T08:12:49.023Z,3.40
2018-07-26T08:15:17.322Z,3.65
2018-07-26T08:17:45.652Z,3.08
2018-07-26T08:20:13.939Z,2.67
2018-07-26T08:22:42.239Z,2.70
2018-07-26T08:25:11.194Z,2.50
2018-07-26T08:27:39.567Z,3.08
2018-07-26T08:30:09.514Z,2.72
2018-07-26T08:32:37.827Z,2.80
2018-07-26T08:35:06.244Z,2.60
2018-07-26T08:37:34.662Z,2.55
2018-07-26T08:40:03.466Z,2.87
2018-07-26T08:42:31.769Z,3.00
2018-07-26T08:45:00.058Z,2.83
2018-07-26T08:47:28.330Z,2.70
2018-07-26T08:49:56.704Z,2.67
2018-07-26T08:52:24.967Z,3.10
2018-07-26T08:54:53.227Z,3.10
2018-07-26T08:57:21.502Z,2.70
2018-07-26T08:59:49.804Z,2.92
2018-07-26T09:02:18.091Z,2.70
2018-07-26T09:04:46.370Z,2.87
2018-07-26T09:07:14.654Z,2.95
2018-07-26T09:09:42.935Z,3.25
2018-07-26T09:12:11.203Z,2.98
2018-07-26T09:14:39.465Z,2.60
2018-07-26T09:17:07.754Z,3.08
2018-07-26T09:19:36.044Z,2.98
2018-07-26T09:22:04.327Z,2.95
2018-07-26T09:24:32.605Z,2.90
2018-07-26T09:27:00.918Z,2.87
2018-07-26T09:29:29.198Z,2.45
2018-07-26T09:31:57.643Z,2.55
2018-07-26T09:34:25.912Z,2.37
2018-07-26T09:36:54.211Z,2.20
2018-07-26T09:39:22.491Z,2.55
2018-07-26T09:41:50.779Z,2.25
2018-07-26T09:44:19.052Z,2.00
2018-07-26T09:46:47.354Z,2.35
2018-07-26T09:49:15.678Z,2.30
2018-07-26T09:51:43.956Z,2.20
2018-07-26T09:54:12.270Z,2.20
2018-07-26T09:56:40.558Z,2.30
2018-07-26T09:59:08.878Z,2.50
2018-07-26T10:01:38.255Z,2.02
2018-07-26T10:04:06.786Z,2.10
2018-07-26T10:06:35.067Z,2.42
2018-07-26T10:09:04.158Z,2.35
2018-07-26T10:11:32.480Z,2.52
2018-07-26T10:14:00.788Z,2.20
2018-07-26T10:16:29.059Z,2.10
2018-07-26T10:18:57.375Z,2.35
2018-07-26T10:21:25.642Z,2.10
2018-07-26T10:23:53.934Z,2.42
2018-07-26T10:26:22.243Z,2.20
2018-07-26T10:28:50.521Z,2.37
2018-07-26T10:31:18.903Z,2.37
2018-07-26T10:33:47.316Z,2.30
2018-07-26T10:36:15.989Z,2.85
2018-07-26T10:38:44.259Z,2.60
2018-07-26T10:41:12.940Z,2.83
2018-07-26T10:43:41.218Z,2.60
2018-07-26T10:46:09.514Z,2.55
2018-07-26T10:48:37.799Z,2.92
2018-07-26T10:51:06.287Z,2.60
2018-07-26T10:53:34.558Z,2.95
2018-07-26T10:56:02.864Z,3.30
2018-07-26T10:58:31.142Z,3.17
2018-07-26T11:00:59.426Z,3.17
2018-07-26T11:03:27.733Z,3.33
2018-07-26T11:05:56.064Z,3.52
2018-07-26T11:08:24.347Z,2.92
2018-07-26T11:10:52.682Z,3.02
2018-07-26T11:13:20.963Z,3.33
2018-07-26T11:15:49.244Z,3.50
2018-07-26T11:18:40.607Z,3.67
2018-07-26T11:21:08.875Z,3.70
2018-07-26T11:23:37.147Z,3.50
2018-07-26T11:26:05.129Z,3.65
2018-07-26T11:28:33.397Z,3.52
2018-07-26T11:31:01.634Z,3.62
2018-07-26T11:33:29.901Z,3.67
2018-07-26T11:35:58.170Z,3.33
2018-07-26T11:38:26.427Z,3.22
2018-07-26T11:40:54.695Z,3.52
2018-07-26T11:43:22.960Z,3.20
2018-07-26T11:45:50.958Z,3.27
2018-07-26T11:48:19.217Z,3.52
2018-07-26T11:50:47.471Z,3.83
2018-07-26T11:53:15.718Z,3.25
2018-07-26T11:55:44.047Z,4.00
2018-07-26T11:58:12.332Z,3.85
2018-07-26T12:00:40.577Z,3.62
2018-07-26T12:03:08.986Z,3.20
2018-07-26T12:05:39.161Z,3.20
2018-07-26T12:08:07.785Z,3.50
2018-07-26T12:10:36.042Z,3.80
2018-07-26T12:13:04.306Z,3.70
2018-07-26T12:15:32.559Z,3.60
2018-07-26T12:18:00.817Z,3.50
2018-07-26T12:20:29.063Z,3.02
2018-07-26T12:22:57.328Z,3.37
2018-07-26T12:25:25.584Z,3.35
2018-07-26T12:27:53.856Z,3.22
2018-07-26T12:30:22.132Z,3.30
2018-07-26T12:32:50.384Z,3.58
2018-07-26T12:35:18.646Z,3.75
2018-07-26T12:37:46.902Z,3.40
2018-07-26T12:40:15.180Z,3.60
2018-07-26T12:42:43.444Z,3.20
2018-07-26T12:45:11.734Z,3.37
2018-07-26T12:47:40.041Z,3.95
2018-07-26T12:50:08.300Z,3.72
2018-07-26T12:52:36.562Z,3.15
2018-07-26T12:55:04.853Z,3.47
2018-07-26T12:57:33.116Z,4.10
2018-07-26T13:00:01.390Z,3.87
2018-07-26T13:02:29.678Z,3.37
2018-07-26T13:04:57.990Z,3.35
2018-07-26T13:07:26.251Z,3.47
2018-07-26T13:09:54.522Z,3.27
2018-07-26T13:12:22.836Z,3.70
2018-07-26T13:14:51.092Z,3.60
2018-07-26T13:17:19.366Z,3.90
2018-07-26T13:19:47.627Z,4.12
2018-07-26T13:22:16.352Z,3.75
2018-07-26T13:24:44.613Z,4.25
2018-07-26T13:27:13.576Z,3.90
2018-07-26T13:29:41.806Z,3.42
2018-07-26T13:32:10.185Z,3.62
2018-07-26T13:34:38.450Z,3.25
2018-07-26T13:37:06.712Z,3.62
2018-07-26T13:39:34.980Z,3.95
2018-07-26T13:42:03.238Z,4.20
2018-07-26T13:44:31.502Z,3.87
2018-07-26T13:46:59.793Z,3.95
2018-07-26T13:49:28.858Z,3.92
2018-07-26T13:51:57.800Z,3.40
2018-07-26T13:54:26.083Z,3.72
2018-07-26T13:56:54.356Z,4.00
2018-07-26T13:59:22.692Z,3.98
2018-07-26T14:01:50.965Z,4.08
2018-07-26T14:04:19.247Z,3.70
2018-07-26T14:06:47.538Z,4.22
2018-07-26T14:09:15.819Z,4.15
2018-07-26T14:11:44.655Z,3.87
2018-07-26T14:14:12.935Z,4.15
2018-07-26T14:16:42.323Z,3.20
2018-07-26T14:19:11.278Z,3.37
2018-07-26T14:21:40.113Z,3.80
2018-07-26T14:24:13.978Z,3.65
2018-07-26T14:26:43.264Z,3.95
2018-07-26T14:29:11.658Z,3.83
2018-07-26T14:31:39.935Z,3.45
2018-07-26T14:34:07.995Z,3.77
2018-07-26T14:36:36.260Z,4.12
2018-07-26T14:39:07.335Z,3.70
2018-07-26T14:41:35.630Z,3.70
2018-07-26T14:44:04.030Z,3.80
2018-07-26T14:46:33.713Z,4.00
2018-07-26T14:49:02.568Z,3.83
2018-07-26T14:51:31.176Z,3.52
2018-07-26T14:54:00.171Z,3.40
2018-07-26T14:56:29.007Z,3.47
2018-07-26T14:58:58.085Z,3.67
2018-07-26T15:01:27.024Z,3.83
2018-07-26T15:03:56.038Z,3.20
2018-07-26T15:06:24.876Z,3.80
2018-07-26T15:08:53.819Z,3.65
2018-07-26T15:11:22.860Z,3.72
2018-07-26T15:13:51.721Z,3.70
2018-07-26T15:16:20.543Z,3.47
2018-07-26T15:18:49.387Z,3.95
2018-07-26T15:21:18.233Z,3.55
2018-07-26T15:23:46.510Z,3.87
2018-07-26T15:26:19.890Z,3.65
2018-07-26T15:28:48.575Z,3.58
2018-07-26T15:31:17.537Z,3.50
2018-07-26T15:33:46.202Z,3.80
2018-07-26T15:36:14.968Z,3.65
2018-07-26T15:38:43.606Z,3.17
2018-07-26T15:41:12.881Z,3.75
2018-07-26T15:43:42.768Z,3.65
2018-07-26T15:46:12.258Z,3.52
2018-07-26T15:48:41.789Z,2.85
2018-07-26T15:51:11.466Z,3.33
2018-07-26T15:53:41.578Z,3.30
2018-07-26T15:56:10.368Z,3.50
2018-07-26T15:58:39.159Z,3.45
2018-07-26T16:01:08.028Z,3.52
2018-07-26T16:03:36.949Z,3.55
2018-07-26T16:06:06.829Z,3.70
2018-07-26T16:08:35.270Z,3.35
2018-07-26T16:11:04.231Z,3.33
2018-07-26T16:13:33.782Z,3.40
2018-07-26T16:16:02.979Z,3.90
2018-07-26T16:18:31.442Z,3.75
2018-07-26T16:20:59.879Z,3.47
2018-07-26T16:23:28.161Z,4.83
2018-07-26T16:25:56.561Z,4.70
2018-07-26T16:28:25.231Z,3.95
2018-07-26T16:30:54.285Z,4.37
2018-07-26T16:33:23.118Z,4.62
2018-07-26T16:35:51.984Z,4.72
2018-07-26T16:38:38.054Z,4.90
2018-07-26T16:41:07.134Z,4.40
2018-07-26T16:43:35.610Z,4.33
2018-07-26T16:46:04.084Z,4.50
2018-07-26T16:48:33.061Z,4.28
2018-07-26T16:51:02.013Z,4.45
2018-07-26T16:53:32.849Z,4.47
2018-07-26T16:56:01.834Z,4.37
2018-07-26T16:58:31.026Z,4.20
2018-07-26T17:00:59.975Z,4.22
2018-07-26T17:03:28.712Z,4.25
2018-07-26T17:05:57.046Z,4.15
2018-07-26T17:08:25.812Z,4.22
2018-07-26T17:10:54.955Z,4.25
2018-07-26T17:13:23.823Z,4.25
2018-07-26T17:15:52.078Z,4.12
2018-07-26T17:19:20.003Z,4.35
2018-07-26T17:21:48.379Z,4.22
2018-07-26T17:24:16.746Z,4.00
2018-07-26T17:26:45.822Z,4.50
2018-07-26T17:29:14.364Z,4.30
2018-07-26T17:31:43.480Z,4.33
2018-07-26T17:34:12.390Z,4.00
2018-07-26T17:36:41.538Z,4.17
2018-07-26T17:39:11.385Z,4.30
2018-07-26T17:41:39.881Z,4.10
2018-07-26T17:44:08.754Z,4.17
2018-07-26T17:49:11.229Z,4.20
2018-07-26T17:51:40.462Z,4.50
2018-07-26T17:54:09.140Z,4.55
2018-07-26T17:56:38.376Z,4.30
2018-07-26T17:59:07.200Z,4.50
2018-07-26T18:01:36.095Z,4.28
2018-07-26T18:04:04.878Z,4.28
2018-07-26T18:06:33.992Z,4.20
2018-07-26T18:09:02.302Z,4.30
2018-07-26T18:11:30.578Z,3.92
2018-07-26T18:13:59.041Z,4.50
2018-07-26T18:16:27.378Z,4.47
2018-07-26T18:18:55.716Z,4.37
2018-07-26T18:21:23.706Z,4.47
2018-07-26T18:23:51.979Z,3.90
2018-07-26T18:26:20.744Z,3.92
2018-07-26T18:28:50.256Z,4.33
2018-07-26T18:31:20.266Z,3.87
2018-07-26T18:33:49.476Z,4.15
2018-07-26T18:36:18.863Z,4.00
2018-07-26T18:38:48.442Z,4.00
2018-07-26T18:41:17.921Z,4.13
2018-07-26T18:43:48.031Z,4.30
2018-07-26T18:46:17.429Z,3.90
2018-07-26T18:48:47.115Z,4.20
2018-07-26T18:51:16.850Z,3.70
2018-07-26T18:53:46.343Z,3.97
2018-07-26T18:56:16.480Z,3.90
2018-07-26T18:58:45.850Z,3.73
2018-07-26T19:01:15.160Z,4.30
2018-07-26T19:03:44.521Z,4.10
2018-07-26T19:06:15.290Z,4.17
2018-07-26T19:08:45.370Z,4.23
2018-07-26T19:11:15.970Z,3.90
2018-07-26T19:13:45.736Z,4.33
2018-07-26T19:16:25.226Z,4.20
2018-07-26T19:18:54.742Z,3.90
2018-07-26T19:21:23.541Z,4.13
2018-07-26T19:23:53.155Z,3.83
2018-07-26T19:26:23.504Z,4.00
2018-07-26T19:28:55.201Z,4.30
2018-07-26T19:31:24.299Z,4.43
2018-07-26T19:33:53.725Z,4.27
2018-07-26T19:36:23.013Z,4.30
2018-07-26T19:38:52.369Z,4.13
2018-07-26T19:41:21.780Z,4.13
2018-07-26T19:43:51.372Z,4.10
2018-07-26T19:46:20.966Z,4.27
2018-07-26T19:48:50.340Z,4.20
2018-07-26T19:51:19.830Z,4.43
2018-07-26T19:53:49.308Z,4.47
2018-07-26T19:56:18.722Z,4.27
2018-07-26T19:58:48.678Z,3.80
2018-07-26T20:01:18.127Z,4.13
2018-07-26T20:03:48.517Z,4.10
2018-07-26T20:06:18.918Z,4.07
2018-07-26T20:08:48.436Z,4.33
2018-07-26T20:11:18.893Z,3.80
2018-07-26T20:13:48.244Z,4.30
2018-07-26T20:16:17.821Z,4.27
2018-07-26T20:18:47.125Z,4.87
2018-07-26T20:21:16.504Z,5.50
2018-07-26T20:23:45.889Z,6.17
2018-07-26T20:26:14.175Z,5.70
2018-07-26T20:28:42.440Z,5.37
2018-07-26T20:31:10.714Z,5.30
2018-07-26T20:33:39.126Z,5.77
2018-07-26T20:36:07.418Z,5.13
2018-07-26T20:38:35.690Z,5.07
2018-07-26T20:41:03.994Z,4.90
2018-07-26T20:43:32.406Z,4.80
2018-07-26T20:46:00.678Z,4.63
2018-07-26T20:48:29.049Z,4.40
2018-07-26T20:50:57.263Z,4.87
2018-07-26T20:53:25.541Z,4.73
2018-07-26T20:55:53.811Z,5.00
2018-07-26T20:58:22.105Z,4.80
2018-07-26T21:00:50.380Z,5.10
2018-07-26T21:03:18.669Z,5.13
2018-07-26T21:05:46.941Z,4.70
2018-07-26T21:08:15.219Z,5.50
2018-07-26T21:13:34.200Z,5.10
2018-07-26T21:16:02.328Z,4.20
2018-07-26T21:18:30.650Z,5.00
2018-07-26T21:20:58.840Z,4.90
2018-07-26T21:23:27.108Z,5.23
2018-07-26T21:25:55.113Z,5.17
2018-07-26T21:28:23.491Z,4.80
2018-07-26T21:30:51.743Z,5.37
2018-07-26T21:33:19.991Z,5.20
2018-07-26T21:35:48.247Z,5.13
2018-07-26T21:38:16.504Z,5.43
2018-07-26T21:40:44.806Z,5.27
2018-07-26T21:43:13.062Z,5.63
2018-07-26T21:45:41.311Z,4.90
2018-07-26T21:48:09.567Z,5.17
2018-07-26T21:50:37.826Z,5.30
2018-07-26T21:53:06.373Z,5.20
2018-07-26T21:55:34.626Z,5.10
2018-07-26T21:58:02.882Z,5.00
2018-07-26T22:00:38.774Z,6.00
2018-07-26T22:03:07.550Z,5.40
2018-07-26T22:05:35.955Z,5.30
2018-07-26T22:08:04.303Z,5.70
2018-07-26T22:10:32.706Z,5.17
2018-07-26T22:13:01.038Z,5.80
2018-07-26T22:15:29.271Z,5.80
2018-07-26T22:17:57.504Z,5.50
2018-07-26T22:20:25.748Z,5.23
2018-07-26T22:22:53.986Z,5.50
2018-07-26T22:25:22.242Z,5.70
2018-07-26T22:27:50.484Z,5.27
2018-07-26T22:30:18.727Z,5.40
2018-07-26T22:32:46.963Z,5.63
2018-07-26T22:35:15.206Z,5.30
2018-07-26T22:37:43.448Z,5.90
2018-07-26T22:40:11.742Z,6.23
2018-07-26T22:42:40.039Z,5.43
2018-07-26T22:45:08.796Z,5.77
2018-07-26T22:47:37.299Z,5.93
2018-07-26T22:50:05.810Z,5.57
2018-07-26T22:52:34.039Z,5.50
2018-07-26T22:55:02.280Z,6.17
2018-07-26T22:57:30.683Z,6.43
2018-07-26T22:59:59.023Z,5.83
2018-07-26T23:02:27.443Z,6.23
2018-07-26T23:04:55.716Z,5.83
2018-07-26T23:07:23.983Z,5.83
2018-07-26T23:09:51.997Z,5.40
2018-07-26T23:12:20.291Z,6.00
2018-07-26T23:14:48.566Z,6.03
2018-07-26T23:17:16.822Z,5.83
2018-07-26T23:19:45.095Z,5.83
2018-07-26T23:22:13.138Z,5.97
2018-07-26T23:24:41.497Z,5.90
2018-07-26T23:27:09.765Z,5.63
2018-07-26T23:29:38.051Z,6.50
2018-07-26T23:32:06.319Z,5.40
2018-07-26T23:34:34.600Z,6.00
2018-07-26T23:37:02.894Z,6.07
2018-07-26T23:39:31.178Z,5.97
2018-07-26T23:41:59.438Z,5.87
2018-07-26T23:44:27.719Z,6.37
2018-07-26T23:46:56.009Z,5.87
2018-07-26T23:49:24.319Z,5.97
2018-07-26T23:51:52.573Z,5.83
2018-07-26T23:54:20.855Z,5.97
2018-07-26T23:56:49.140Z,6.20
2018-07-26T23:59:17.412Z,5.80
